Time;durP1;ratioP1;P1;durP2;ratioP2;P2;SDS_P1;SDS_P2;PMS_P1;PMS_P2;Temp;Humidity;BMP_temperature;BMP_pressure;BME280_temperature;BME280_humidity;BME280_pressure;Samples;Min_cycle;Max_cycle;Signal;HPM_P1;HPM_P2
2022/06/20 00:00:20;;;;;;;6.10;3.20;;;24.90;77.40;;;;;;5055092;28;20124;-74
2022/06/20 00:02:52;;;;;;;3.33;3.00;;;24.90;77.40;;;;;;5055124;28;20085;-74
2022/06/20 00:05:23;;;;;;;3.75;2.90;;;25.00;77.40;;;;;;5053818;28;20052;-74
2022/06/20 00:07:50;;;;;;;3.45;3.25;;;24.90;77.50;;;;;;5055026;28;20493;-74
2022/06/20 00:10:18;;;;;;;3.67;3.42;;;25.00;77.40;;;;;;5054647;28;20021;-74
2022/06/20 00:12:45;;;;;;;4.15;3.25;;;25.00;77.60;;;;;;5055092;28;20075;-74
2022/06/20 00:15:26;;;;;;;3.47;3.22;;;25.00;78.00;;;;;;5054664;28;20054;-74
2022/06/20 00:17:52;;;;;;;3.92;3.60;;;25.00;78.20;;;;;;5053900;28;20542;-74
2022/06/20 00:20:19;;;;;;;6.07;3.10;;;24.90;78.90;;;;;;5054781;28;20025;-74
2022/06/20 00:22:45;;;;;;;3.25;3.05;;;24.80;79.10;;;;;;5053334;28;20025;-74
2022/06/20 00:25:10;;;;;;;3.42;3.13;;;24.90;79.00;;;;;;5054681;28;20013;-74
2022/06/20 00:27:37;;;;;;;4.47;3.28;;;24.80;79.00;;;;;;5054557;28;20552;-74
2022/06/20 00:30:04;;;;;;;5.63;3.38;;;24.90;79.40;;;;;;5054779;28;20078;-74
2022/06/20 00:32:30;;;;;;;3.38;3.17;;;24.80;79.40;;;;;;5054454;28;20108;-74
2022/06/20 00:34:56;;;;;;;5.35;2.95;;;24.80;79.90;;;;;;5054596;28;20101;-74
2022/06/20 00:37:22;;;;;;;3.53;3.35;;;24.60;80.20;;;;;;5054221;28;20371;-74
2022/06/20 00:39:50;;;;;;;3.10;2.90;;;24.60;80.70;;;;;;5054436;28;20067;-74
2022/06/20 00:42:17;;;;;;;4.50;3.33;;;24.50;81.30;;;;;;5054166;28;20055;-74
2022/06/20 00:44:46;;;;;;;3.85;3.47;;;24.40;81.50;;;;;;5054255;28;20029;-74
2022/06/20 00:47:24;;;;;;;3.97;3.15;;;24.40;81.80;;;;;;5054099;28;20033;-74
2022/06/20 00:49:59;;;;;;;4.05;3.65;;;24.30;82.30;;;;;;5054285;28;20021;-74
2022/06/20 00:52:33;;;;;;;3.20;2.92;;;24.40;82.50;;;;;;5054290;28;20031;-74
2022/06/20 00:55:05;;;;;;;3.85;3.38;;;24.40;82.50;;;;;;5054174;28;20617;-74
2022/06/20 00:57:52;;;;;;;5.55;3.10;;;24.30;82.70;;;;;;5053945;28;20028;-74
2022/06/20 01:00:24;;;;;;;3.85;3.55;;;24.30;83.00;;;;;;5053884;28;20499;-74
2022/06/20 01:02:55;;;;;;;3.10;2.92;;;24.20;83.30;;;;;;5053839;28;20025;-75
2022/06/20 01:05:27;;;;;;;4.53;3.45;;;24.20;83.70;;;;;;5053856;28;20090;-74
2022/06/20 01:08:01;;;;;;;3.58;3.30;;;24.20;83.90;;;;;;5053530;28;20025;-74
2022/06/20 01:10:32;;;;;;;5.10;3.42;;;24.10;83.80;;;;;;5053847;28;20020;-74
2022/06/20 01:13:02;;;;;;;3.73;3.43;;;24.10;84.10;;;;;;5053718;28;20033;-74
2022/06/20 01:15:36;;;;;;;3.45;3.20;;;24.10;84.00;;;;;;5053506;28;20453;-74
2022/06/20 01:18:05;;;;;;;3.63;3.33;;;24.10;84.20;;;;;;5053808;28;20103;-74
2022/06/20 01:20:33;;;;;;;3.88;3.30;;;24.10;84.30;;;;;;5053637;28;20017;-74
2022/06/20 01:23:05;;;;;;;6.90;3.58;;;24.10;84.60;;;;;;5052180;28;20056;-74
2022/06/20 01:25:46;;;;;;;10.20;3.47;;;24.00;84.50;;;;;;5053236;28;20059;-74
2022/06/20 01:28:17;;;;;;;4.35;3.67;;;24.00;84.90;;;;;;5053405;28;20371;-74
2022/06/20 01:30:44;;;;;;;4.13;3.10;;;24.10;84.80;;;;;;5053136;28;20021;-74
2022/06/20 01:33:12;;;;;;;3.67;3.38;;;24.00;85.10;;;;;;5053394;28;20017;-74
2022/06/20 01:38:24;;;;;;;3.10;2.97;;;24.00;85.30;;;;;;5053691;28;20035;-74
2022/06/20 01:43:37;;;;;;;3.75;3.45;;;23.90;85.80;;;;;;5053519;28;20040;-74
2022/06/20 01:46:09;;;;;;;4.00;3.70;;;23.90;85.60;;;;;;5053144;28;20047;-74
2022/06/20 01:48:37;;;;;;;;;;;23.90;85.60;;;;;;5052386;28;20039;-74
2022/06/20 01:51:08;;;;;;;7.35;3.78;;;23.90;85.90;;;;;;5053201;28;19905;-74
2022/06/20 01:53:35;;;;;;;3.92;3.63;;;23.90;85.50;;;;;;5053080;28;20128;-74
2022/06/20 01:56:02;;;;;;;3.70;3.50;;;23.90;85.30;;;;;;5052820;28;20071;-74
2022/06/20 01:58:38;;;;;;;4.13;3.53;;;23.90;85.00;;;;;;5051506;28;20052;-74
2022/06/20 02:01:05;;;;;;;3.83;3.17;;;23.90;84.80;;;;;;5052919;28;20446;-74
2022/06/20 02:03:35;;;;;;;3.25;3.05;;;23.90;85.50;;;;;;5052623;28;20035;-74
2022/06/20 02:06:02;;;;;;;4.90;3.47;;;24.00;84.40;;;;;;5052783;28;20410;-74
2022/06/20 02:08:28;;;;;;;3.40;3.22;;;24.00;84.10;;;;;;5051612;28;20104;-74
2022/06/20 02:10:57;;;;;;;3.60;3.40;;;24.00;83.70;;;;;;5051051;28;20112;-74
2022/06/20 02:13:27;;;;;;;9.40;3.40;;;24.00;83.50;;;;;;5052727;28;20032;-74
2022/06/20 02:15:58;;;;;;;3.20;3.00;;;24.00;82.90;;;;;;5052299;28;20029;-74
2022/06/20 02:18:31;;;;;;;8.15;3.05;;;24.00;82.80;;;;;;5052710;28;20029;-74
2022/06/20 02:21:01;;;;;;;5.82;3.53;;;24.00;82.30;;;;;;5052592;28;20104;-74
2022/06/20 02:23:31;;;;;;;3.28;2.80;;;24.00;82.20;;;;;;5052360;28;20052;-74
2022/06/20 02:25:57;;;;;;;4.72;2.58;;;24.00;81.90;;;;;;5052025;28;20379;-74
2022/06/20 02:28:48;;;;;;;7.10;3.28;;;23.90;82.10;;;;;;5052025;28;20040;-75
2022/06/20 02:31:15;;;;;;;3.40;3.20;;;23.90;82.20;;;;;;5052099;28;20176;-75
2022/06/20 02:33:41;;;;;;;3.70;3.17;;;23.80;82.10;;;;;;5051990;28;20032;-75
2022/06/20 02:36:07;;;;;;;3.33;2.78;;;23.90;82.20;;;;;;5052000;28;20025;-75
2022/06/20 02:38:34;;;;;;;3.45;3.15;;;23.90;81.90;;;;;;5052029;28;20487;-75
2022/06/20 02:41:01;;;;;;;4.55;3.15;;;23.80;81.70;;;;;;5052800;28;20036;-75
2022/06/20 02:43:39;;;;;;;3.53;3.33;;;23.90;81.70;;;;;;5056278;28;20043;-75
2022/06/20 02:46:09;;;;;;;3.90;3.13;;;23.80;81.60;;;;;;5055949;28;20370;-75
2022/06/20 02:48:37;;;;;;;2.60;2.42;;;23.90;81.70;;;;;;5056018;28;20025;-75
2022/06/20 02:51:06;;;;;;;5.43;3.60;;;23.80;82.50;;;;;;5056475;28;20060;-74
2022/06/20 02:53:51;;;;;;;3.80;3.40;;;23.80;81.50;;;;;;5055396;28;20021;-74
2022/06/20 02:56:20;;;;;;;3.70;3.13;;;23.80;81.50;;;;;;5055210;28;21081;-74
2022/06/20 02:58:50;;;;;;;8.23;3.22;;;23.80;81.40;;;;;;5055336;28;20123;-74
2022/06/20 03:01:38;;;;;;;3.28;3.08;;;23.80;81.30;;;;;;5055309;28;20037;-74
2022/06/20 03:04:05;;;;;;;3.00;2.80;;;23.80;81.20;;;;;;5055338;28;20036;-74
2022/06/20 03:06:40;;;;;;;3.17;2.95;;;23.80;81.00;;;;;;5056138;28;20017;-74
2022/06/20 03:09:06;;;;;;;3.80;3.05;;;23.80;81.30;;;;;;5055644;28;20029;-74
2022/06/20 03:11:37;;;;;;;3.47;3.17;;;23.80;80.70;;;;;;5055824;28;20079;-74
2022/06/20 03:14:06;;;;;;;3.20;3.00;;;23.80;80.60;;;;;;5055875;28;20083;-74
2022/06/20 03:16:32;;;;;;;5.40;2.63;;;23.80;80.60;;;;;;5055917;28;20017;-74
2022/06/20 03:19:01;;;;;;;6.10;3.10;;;23.80;80.60;;;;;;5055933;28;20025;-74
2022/06/20 03:21:35;;;;;;;4.75;3.10;;;23.80;80.40;;;;;;5056003;28;20047;-74
2022/06/20 03:24:02;;;;;;;3.30;3.00;;;23.70;80.20;;;;;;5054688;28;20360;-74
2022/06/20 03:26:28;;;;;;;2.95;2.70;;;23.80;80.50;;;;;;5055745;28;20021;-74
2022/06/20 03:28:54;;;;;;;6.13;3.20;;;23.80;80.40;;;;;;5055894;28;20474;-74
2022/06/20 03:31:20;;;;;;;3.72;3.17;;;23.70;81.30;;;;;;5055900;28;20112;-74
2022/06/20 03:33:47;;;;;;;3.13;2.90;;;23.70;80.60;;;;;;5055716;28;20035;-74
2022/06/20 03:36:24;;;;;;;3.63;3.13;;;23.70;80.60;;;;;;5054235;28;20028;-74
2022/06/20 03:38:50;;;;;;;6.05;3.33;;;23.60;81.00;;;;;;5055637;28;20100;-74
2022/06/20 03:41:21;;;;;;;4.15;2.90;;;23.60;80.90;;;;;;5055248;28;20036;-74
2022/06/20 03:43:59;;;;;;;2.60;2.45;;;23.60;81.20;;;;;;5055636;28;20048;-74
2022/06/20 03:46:31;;;;;;;3.35;3.05;;;23.60;81.60;;;;;;5055349;28;20032;-74
2022/06/20 03:49:04;;;;;;;;;;;23.60;81.20;;;;;;5055935;28;20737;-74
2022/06/20 03:51:38;;;;;;;4.55;3.10;;;23.60;81.50;;;;;;5054173;28;19905;-74
2022/06/20 03:54:24;;;;;;;2.97;2.85;;;23.50;81.50;;;;;;5055295;28;20032;-74
2022/06/20 03:57:01;;;;;;;3.15;2.95;;;23.50;81.70;;;;;;5055154;28;20458;-74
2022/06/20 03:59:52;;;;;;;3.55;3.25;;;23.50;81.50;;;;;;5054904;28;20045;-74
2022/06/20 04:02:33;;;;;;;4.28;3.22;;;23.60;81.30;;;;;;5054830;28;20206;-74
2022/06/20 04:05:07;;;;;;;5.32;3.10;;;23.60;81.50;;;;;;5055055;28;20017;-74
2022/06/20 04:07:43;;;;;;;3.55;3.25;;;23.60;81.50;;;;;;5053645;28;20032;-74
2022/06/20 04:13:28;;;;;;;3.40;3.10;;;23.60;82.30;;;;;;5055002;28;20121;-74
2022/06/20 04:16:00;;;;;;;8.38;4.30;;;23.60;82.50;;;;;;5053577;28;20021;-74
2022/06/20 04:18:36;;;;;;;4.57;3.25;;;23.60;85.70;;;;;;5054977;28;20083;-74
2022/06/20 04:21:17;;;;;;;3.53;3.33;;;23.60;85.70;;;;;;5054533;28;20052;-74
2022/06/20 04:23:52;;;;;;;7.93;3.78;;;23.60;85.60;;;;;;5053292;28;20106;-74
2022/06/20 04:26:46;;;;;;;3.08;2.78;;;23.70;85.30;;;;;;5053364;28;20029;-74
2022/06/20 04:29:27;;;;;;;2.92;2.72;;;23.70;85.10;;;;;;5054712;28;20029;-74
2022/06/20 04:32:27;;;;;;;3.80;3.30;;;23.60;86.30;;;;;;5054465;28;20025;-74
2022/06/20 04:35:00;;;;;;;2.97;2.78;;;23.60;87.90;;;;;;5053219;28;20602;-74
2022/06/20 04:37:48;;;;;;;4.45;3.35;;;23.70;87.50;;;;;;5053469;28;20025;-74
2022/06/20 04:40:25;;;;;;;4.07;3.28;;;23.80;87.20;;;;;;5049297;28;20020;-74
2022/06/20 04:42:53;;;;;;;3.88;2.90;;;23.90;86.60;;;;;;5051047;28;20025;-74
2022/06/20 04:45:24;;;;;;;4.15;3.00;;;23.90;87.50;;;;;;5052045;28;20132;-74
2022/06/20 04:47:59;;;;;;;5.43;3.63;;;23.90;85.80;;;;;;5054343;28;20021;-74
2022/06/20 04:50:28;;;;;;;3.50;3.20;;;24.00;85.50;;;;;;5052766;28;20355;-74
2022/06/20 04:52:59;;;;;;;3.35;3.15;;;24.00;87.10;;;;;;5052992;28;20458;-74
2022/06/20 04:55:28;;;;;;;4.20;3.80;;;24.00;88.70;;;;;;5050554;28;20062;-74
2022/06/20 04:57:57;;;;;;;3.55;3.25;;;24.00;87.80;;;;;;5052544;28;20074;-74
2022/06/20 05:00:45;;;;;;;3.92;3.60;;;24.00;88.10;;;;;;5052638;28;20031;-74
2022/06/20 05:03:19;;;;;;;3.58;3.28;;;24.00;88.50;;;;;;5050988;28;20029;-74
2022/06/20 05:05:49;;;;;;;3.97;3.67;;;24.00;87.50;;;;;;5051386;28;20021;-74
2022/06/20 05:08:20;;;;;;;3.60;3.33;;;24.10;87.20;;;;;;5052594;28;20024;-74
2022/06/20 05:10:55;;;;;;;4.18;3.40;;;24.10;87.60;;;;;;5053802;28;20049;-74
2022/06/20 05:13:27;;;;;;;4.75;3.58;;;24.20;87.70;;;;;;5053864;28;20017;-74
2022/06/20 05:15:54;;;;;;;5.60;3.63;;;24.10;87.80;;;;;;5052312;28;20029;-74
2022/06/20 05:18:42;;;;;;;4.90;3.15;;;24.20;88.20;;;;;;5053479;28;20029;-74
2022/06/20 05:21:18;;;;;;;4.05;3.20;;;24.20;88.20;;;;;;5053626;28;20029;-74
2022/06/20 05:23:47;;;;;;;4.35;3.50;;;24.30;88.90;;;;;;5053224;28;20104;-74
2022/06/20 05:26:27;;;;;;;3.83;3.40;;;24.30;88.90;;;;;;5053696;28;20494;-74
2022/06/20 05:28:56;;;;;;;4.95;3.42;;;24.40;88.50;;;;;;5053545;28;20065;-74
2022/06/20 05:31:43;;;;;;;3.80;3.50;;;24.50;88.70;;;;;;5053474;28;20021;-74
2022/06/20 05:34:29;;;;;;;4.53;3.70;;;24.50;88.30;;;;;;5053616;28;20025;-74
2022/06/20 05:37:03;;;;;;;5.65;3.72;;;24.60;87.70;;;;;;5051856;28;20032;-74
2022/06/20 05:39:51;;;;;;;5.50;3.97;;;24.70;87.80;;;;;;5051872;28;20056;-74
2022/06/20 05:42:18;;;;;;;4.05;3.75;;;24.70;87.30;;;;;;5051818;28;20069;-74
2022/06/20 05:44:44;;;;;;;4.25;3.85;;;24.80;87.00;;;;;;5051004;28;20025;-74
2022/06/20 05:47:33;;;;;;;4.28;3.72;;;24.70;86.90;;;;;;5051274;28;20067;-74
2022/06/20 05:50:21;;;;;;;4.85;3.30;;;24.80;87.60;;;;;;5051817;28;20052;-74
2022/06/20 05:52:48;;;;;;;3.55;3.25;;;24.80;87.30;;;;;;5052796;28;20036;-74
2022/06/20 05:55:24;;;;;;;3.60;3.30;;;24.90;88.30;;;;;;5053067;28;20025;-74
2022/06/20 05:57:50;;;;;;;5.97;3.20;;;24.90;90.40;;;;;;5052549;28;20032;-74
2022/06/20 06:00:36;;;;;;;3.63;3.33;;;25.00;90.90;;;;;;5053074;28;20025;-74
2022/06/20 06:03:42;;;;;;;3.50;3.20;;;25.00;91.30;;;;;;5052709;28;20471;-74
2022/06/20 06:06:23;;;;;;;3.20;2.90;;;25.00;91.10;;;;;;5040267;28;20039;-74
2022/06/20 06:09:01;;;;;;;3.50;3.15;;;25.10;90.80;;;;;;5051808;28;20021;-74
2022/06/20 06:11:32;;;;;;;3.88;3.03;;;25.10;89.30;;;;;;5051458;28;20163;-74
2022/06/20 06:14:11;;;;;;;3.88;3.00;;;25.30;90.20;;;;;;5051645;28;20104;-74
2022/06/20 06:16:48;;;;;;;3.58;3.28;;;25.30;90.30;;;;;;5050762;28;20028;-74
2022/06/20 06:19:14;;;;;;;5.43;3.30;;;25.30;90.50;;;;;;5050165;28;20036;-74
2022/06/20 06:21:41;;;;;;;4.13;3.58;;;25.40;90.00;;;;;;5051374;28;20029;-74
2022/06/20 06:24:12;;;;;;;4.25;3.85;;;25.30;89.80;;;;;;5051617;28;20029;-74
2022/06/20 06:26:39;;;;;;;;;;;25.40;90.30;;;;;;5051879;28;20071;-74
2022/06/20 06:29:10;;;;;;;7.43;3.38;;;25.40;89.70;;;;;;5050174;28;19907;-74
2022/06/20 06:31:40;;;;;;;4.38;3.30;;;25.40;90.00;;;;;;5051344;28;20098;-74
2022/06/20 06:34:19;;;;;;;7.07;3.85;;;25.50;90.10;;;;;;5051175;28;20086;-74
2022/06/20 06:36:58;;;;;;;5.65;3.55;;;25.50;90.00;;;;;;5051449;28;20104;-74
2022/06/20 06:39:32;;;;;;;4.18;3.63;;;25.50;89.10;;;;;;5051277;28;20159;-74
2022/06/20 06:42:01;;;;;;;5.35;3.33;;;25.50;89.30;;;;;;5051368;28;20112;-74
2022/06/20 06:44:36;;;;;;;3.70;3.40;;;25.60;88.30;;;;;;5051288;28;20029;-74
2022/06/20 06:47:05;;;;;;;7.50;3.67;;;25.60;89.10;;;;;;5051335;28;20028;-74
2022/06/20 06:49:39;;;;;;;7.63;3.97;;;25.60;87.60;;;;;;5049893;28;20025;-74
2022/06/20 06:52:17;;;;;;;9.02;3.38;;;25.60;87.10;;;;;;5049943;28;20025;-74
2022/06/20 06:54:42;;;;;;;5.60;3.65;;;25.70;88.80;;;;;;5050998;28;20040;-74
2022/06/20 06:57:43;;;;;;;4.00;3.70;;;25.70;86.80;;;;;;5051292;28;20028;-74
2022/06/20 07:00:42;;;;;;;5.80;3.58;;;25.70;88.70;;;;;;5051148;28;20044;-74
2022/06/20 07:03:41;;;;;;;4.30;3.88;;;25.80;89.80;;;;;;5050071;28;20037;-74
2022/06/20 07:06:18;;;;;;;4.82;3.45;;;25.80;90.30;;;;;;5050974;28;20487;-74
2022/06/20 07:08:51;;;;;;;6.07;3.90;;;25.80;90.10;;;;;;5051117;28;20064;-74
2022/06/20 07:11:21;;;;;;;7.35;3.83;;;25.90;90.90;;;;;;5050508;28;20104;-74
2022/06/20 07:14:01;;;;;;;5.30;4.57;;;26.00;91.10;;;;;;5049526;28;20025;-74
2022/06/20 07:16:41;;;;;;;4.82;4.35;;;26.00;91.20;;;;;;5050838;28;20067;-74
2022/06/20 07:19:10;;;;;;;4.25;3.95;;;26.00;91.80;;;;;;5049556;28;20437;-74
2022/06/20 07:21:39;;;;;;;6.72;4.60;;;26.00;91.80;;;;;;5050832;28;20082;-74
2022/06/20 07:24:14;;;;;;;5.13;4.65;;;26.10;91.90;;;;;;5051080;28;20074;-74
2022/06/20 07:26:57;;;;;;;4.80;4.13;;;26.10;92.40;;;;;;5051360;28;20087;-74
2022/06/20 07:29:28;;;;;;;4.97;4.05;;;26.20;92.10;;;;;;5054680;28;20064;-74
2022/06/20 07:32:03;;;;;;;4.53;4.10;;;26.20;92.70;;;;;;5054657;28;20056;-74
2022/06/20 07:34:57;;;;;;;4.38;4.13;;;26.20;92.50;;;;;;5054338;28;20096;-74
2022/06/20 07:37:35;;;;;;;4.90;4.50;;;26.20;92.10;;;;;;5052898;28;20487;-74
2022/06/20 07:40:29;;;;;;;5.80;4.85;;;26.20;92.10;;;;;;5054354;28;20025;-74
2022/06/20 07:43:07;;;;;;;11.93;4.30;;;26.30;93.50;;;;;;5053048;28;20033;-74
2022/06/20 07:45:39;;;;;;;5.47;4.45;;;26.40;93.70;;;;;;5054208;28;20025;-74
2022/06/20 07:48:16;;;;;;;4.97;4.47;;;26.40;92.80;;;;;;5054236;28;20079;-74
2022/06/20 07:51:03;;;;;;;7.82;4.88;;;26.50;92.40;;;;;;5054280;28;20036;-74
2022/06/20 07:53:40;;;;;;;5.50;4.97;;;26.60;93.00;;;;;;5053984;28;20108;-74
2022/06/20 07:56:12;;;;;;;6.90;4.50;;;26.60;93.60;;;;;;5054136;28;20486;-74
2022/06/20 07:58:44;;;;;;;8.02;5.85;;;26.60;92.20;;;;;;5053922;28;20072;-74
2022/06/20 08:01:31;;;;;;;9.52;4.47;;;26.70;93.20;;;;;;5054034;28;20100;-74
2022/06/20 08:04:07;;;;;;;5.35;4.80;;;26.80;93.20;;;;;;5054077;28;20386;-74
2022/06/20 08:06:33;;;;;;;4.43;4.03;;;26.80;93.40;;;;;;5053922;28;20421;-74
2022/06/20 08:09:26;;;;;;;4.70;4.30;;;26.90;92.70;;;;;;5053873;28;20017;-74
2022/06/20 08:12:00;;;;;;;4.65;4.30;;;26.90;92.20;;;;;;5053532;28;20032;-74
2022/06/20 08:15:02;;;;;;;6.18;4.55;;;27.00;91.70;;;;;;5052455;28;20033;-74
2022/06/20 08:17:32;;;;;;;10.82;5.00;;;27.00;92.40;;;;;;5052345;28;20067;-74
2022/06/20 08:19:59;;;;;;;5.53;4.97;;;27.00;92.50;;;;;;5053663;28;20024;-74
2022/06/20 08:22:34;;;;;;;5.20;4.70;;;27.10;91.70;;;;;;5053767;28;20079;-74
2022/06/20 08:25:08;;;;;;;5.22;4.38;;;27.20;91.90;;;;;;5053719;28;20075;-74
2022/06/20 08:28:04;;;;;;;7.82;4.60;;;27.30;91.70;;;;;;5053604;28;20025;-74
2022/06/20 08:30:36;;;;;;;4.93;4.47;;;27.30;90.30;;;;;;5051336;28;20029;-74
2022/06/20 08:33:21;;;;;;;6.55;5.20;;;27.30;91.70;;;;;;5050726;28;20056;-74
2022/06/20 08:36:16;;;;;;;5.97;4.75;;;27.40;91.00;;;;;;5048032;28;20020;-74
2022/06/20 08:39:03;;;;;;;6.15;4.20;;;27.50;90.40;;;;;;5038292;28;20103;-74
2022/06/20 08:41:56;;;;;;;9.65;4.35;;;27.70;90.20;;;;;;5048466;28;20029;-73
2022/06/20 08:44:43;;;;;;;5.97;3.75;;;27.80;89.50;;;;;;5039172;28;20132;-74
2022/06/20 08:47:44;;;;;;;4.88;4.40;;;27.70;88.80;;;;;;5048561;28;20033;-74
2022/06/20 08:50:28;;;;;;;4.75;3.97;;;27.70;87.10;;;;;;5049450;28;20021;-74
2022/06/20 08:53:25;;;;;;;4.85;3.67;;;27.80;85.70;;;;;;5049126;28;20029;-73
2022/06/20 08:56:16;;;;;;;5.20;4.25;;;27.80;84.70;;;;;;5043856;28;20041;-74
2022/06/20 08:59:11;;;;;;;5.20;4.35;;;27.70;84.40;;;;;;5048438;28;20083;-74
2022/06/20 09:02:21;;;;;;;7.47;4.03;;;27.80;86.60;;;;;;5047089;28;20115;-74
2022/06/20 09:05:06;;;;;;;4.75;4.00;;;27.90;86.70;;;;;;5048428;28;20116;-74
2022/06/20 09:07:49;;;;;;;5.40;3.85;;;27.90;83.00;;;;;;5047933;28;20054;-74
2022/06/20 09:10:15;;;;;;;5.03;3.97;;;28.00;84.00;;;;;;5048649;28;20032;-74
2022/06/20 09:12:55;;;;;;;4.88;4.18;;;28.00;83.10;;;;;;5048441;28;20456;-74
2022/06/20 09:15:42;;;;;;;;;;;28.10;83.20;;;;;;5049219;28;20055;-74
2022/06/20 09:18:15;;;;;;;4.18;3.03;;;28.10;83.40;;;;;;5050995;28;19915;-74
2022/06/20 09:20:52;;;;;;;4.68;4.05;;;28.20;78.50;;;;;;5048695;28;20020;-74
2022/06/20 09:23:18;;;;;;;5.13;3.70;;;28.30;80.40;;;;;;5047390;28;20394;-74
2022/06/20 09:26:21;;;;;;;4.75;3.60;;;28.30;79.10;;;;;;5046234;28;20025;-74
2022/06/20 09:29:11;;;;;;;3.80;3.50;;;28.30;78.50;;;;;;5047340;28;20017;-74
2022/06/20 09:31:46;;;;;;;3.78;3.47;;;28.40;76.20;;;;;;5052197;28;20024;-74
2022/06/20 09:34:36;;;;;;;5.00;3.90;;;28.40;76.50;;;;;;5052126;28;20035;-74
2022/06/20 09:37:14;;;;;;;3.53;3.22;;;28.60;76.10;;;;;;5049416;28;20036;-74
2022/06/20 09:39:55;;;;;;;4.50;4.18;;;28.60;75.60;;;;;;5049032;28;20032;-74
2022/06/20 09:42:52;;;;;;;6.32;3.88;;;28.60;73.50;;;;;;5050485;28;20017;-74
2022/06/20 09:45:26;;;;;;;7.28;4.13;;;28.60;75.90;;;;;;5049949;28;20452;-74
2022/06/20 09:48:04;;;;;;;4.63;3.95;;;28.70;75.40;;;;;;5047920;28;20499;-74
2022/06/20 09:50:40;;;;;;;5.57;3.08;;;28.70;73.00;;;;;;5051974;28;20051;-74
2022/06/20 09:53:21;;;;;;;5.40;4.00;;;28.70;74.30;;;;;;5051909;28;20086;-74
2022/06/20 09:56:07;;;;;;;4.15;3.72;;;28.70;74.60;;;;;;5051947;28;20020;-74
2022/06/20 09:59:04;;;;;;;3.75;3.40;;;28.80;76.40;;;;;;5051671;28;20055;-74
2022/06/20 10:01:48;;;;;;;6.28;4.07;;;28.90;76.60;;;;;;5050487;28;20033;-74
2022/06/20 10:04:33;;;;;;;5.55;4.15;;;28.90;74.90;;;;;;5047530;28;20482;-74
2022/06/20 10:07:26;;;;;;;8.48;3.90;;;29.00;72.80;;;;;;5046970;28;20376;-71
2022/06/20 10:09:59;;;;;;;4.38;4.15;;;29.00;75.70;;;;;;5046215;28;20013;-73
2022/06/20 10:12:33;;;;;;;4.55;4.25;;;29.10;75.40;;;;;;5046909;28;20021;-74
2022/06/20 10:15:11;;;;;;;6.70;5.50;;;29.20;75.10;;;;;;5045480;28;20037;-74
2022/06/20 10:17:57;;;;;;;5.70;4.47;;;29.20;71.80;;;;;;5046954;28;20036;-74
2022/06/20 10:20:48;;;;;;;7.50;4.55;;;29.20;73.00;;;;;;5046608;28;20021;-74
2022/06/20 10:23:32;;;;;;;4.80;4.50;;;29.20;72.90;;;;;;5027573;28;20036;-74
2022/06/20 10:26:03;;;;;;;4.88;4.35;;;29.20;71.60;;;;;;5031568;28;20471;-74
2022/06/20 10:28:29;;;;;;;8.93;5.30;;;29.30;72.60;;;;;;5031775;28;20060;-74
2022/06/20 10:31:16;;;;;;;9.45;5.55;;;29.50;72.40;;;;;;5032526;28;20433;-74
2022/06/20 10:34:05;;;;;;;6.10;5.20;;;29.60;72.10;;;;;;5031524;28;20462;-74
2022/06/20 10:36:51;;;;;;;6.60;5.93;;;29.70;71.10;;;;;;5032420;28;20094;-74
2022/06/20 10:39:41;;;;;;;6.95;5.20;;;29.80;70.20;;;;;;5032158;28;20550;-72
2022/06/20 10:42:30;;;;;;;5.38;4.88;;;29.90;70.10;;;;;;5031980;28;20033;-72
2022/06/20 10:45:02;;;;;;;5.25;4.75;;;30.00;70.20;;;;;;5032242;28;20045;-71
2022/06/20 10:47:39;;;;;;;7.22;5.40;;;30.10;69.70;;;;;;5032242;28;20456;-72
2022/06/20 10:50:34;;;;;;;12.55;4.97;;;30.20;70.80;;;;;;5031013;28;20022;-72
2022/06/20 10:53:03;;;;;;;9.25;4.68;;;30.20;69.30;;;;;;5022731;28;20120;-72
2022/06/20 10:55:56;;;;;;;8.18;5.50;;;30.40;70.80;;;;;;5031562;28;20026;-72
2022/06/20 10:58:40;;;;;;;9.32;5.80;;;30.50;68.80;;;;;;5031555;28;20056;-72
2022/06/20 11:01:20;;;;;;;5.38;4.88;;;30.60;68.00;;;;;;5030134;28;20419;-72
2022/06/20 11:04:04;;;;;;;8.88;5.10;;;30.60;66.40;;;;;;5035734;28;20097;-72
2022/06/20 11:06:42;;;;;;;8.05;5.20;;;30.70;67.60;;;;;;5035637;28;20021;-72
2022/06/20 11:09:23;;;;;;;9.05;5.15;;;30.80;66.50;;;;;;5035447;28;20021;-72
2022/06/20 11:12:10;;;;;;;15.50;6.25;;;30.90;67.30;;;;;;5052914;28;20504;-72
2022/06/20 11:14:45;;;;;;;9.80;5.63;;;31.00;67.40;;;;;;5054733;28;20025;-72
2022/06/20 11:17:27;;;;;;;5.35;4.63;;;31.20;65.60;;;;;;5035192;28;20025;-72
2022/06/20 11:20:13;;;;;;;12.82;4.80;;;31.30;65.00;;;;;;5035080;28;20027;-72
2022/06/20 11:22:43;;;;;;;7.85;5.00;;;31.40;65.50;;;;;;5035041;28;20064;-72
2022/06/20 11:25:39;;;;;;;11.48;4.85;;;31.40;64.90;;;;;;5034978;28;20025;-72
2022/06/20 11:28:20;;;;;;;5.30;4.45;;;31.50;65.10;;;;;;5034940;28;20387;-72
2022/06/20 11:31:05;;;;;;;6.60;3.73;;;31.60;63.70;;;;;;5035059;28;20379;-72
2022/06/20 11:36:20;;;;;;;5.88;4.45;;;31.80;63.10;;;;;;5035436;28;20457;-72
2022/06/20 11:39:01;;;;;;;6.88;4.53;;;31.90;59.20;;;;;;5048585;28;20025;-72
2022/06/20 11:41:37;;;;;;;12.32;4.72;;;32.00;58.90;;;;;;5048741;28;20517;-72
2022/06/20 11:44:08;;;;;;;4.97;4.57;;;32.00;58.90;;;;;;5048614;28;20025;-71
2022/06/20 11:46:37;;;;;;;;;;;32.10;59.30;;;;;;5051050;28;20021;-72
2022/06/20 11:49:44;;;;;;;10.13;4.28;;;32.20;57.30;;;;;;5050322;28;19954;-77
2022/06/20 11:52:24;;;;;;;5.10;3.95;;;32.40;57.50;;;;;;5050175;28;20503;-76
2022/06/20 11:55:21;;;;;;;4.68;4.10;;;32.60;58.00;;;;;;5046455;28;20203;-78
2022/06/20 11:58:12;;;;;;;8.57;3.78;;;32.70;56.70;;;;;;5049063;28;20043;-77
2022/06/20 12:00:48;;;;;;;3.80;3.10;;;32.70;56.10;;;;;;5049848;28;20021;-78
2022/06/20 12:03:35;;;;;;;6.45;3.78;;;32.80;54.60;;;;;;5049615;28;20025;-77
2022/06/20 12:06:05;;;;;;;5.38;3.33;;;33.00;52.80;;;;;;5050049;28;20029;-79
2022/06/20 12:08:43;;;;;;;9.35;3.50;;;33.00;52.90;;;;;;5049772;28;20028;-77
2022/06/20 12:11:12;;;;;;;5.07;3.65;;;33.00;52.10;;;;;;5048319;28;20021;-79
2022/06/20 12:13:47;;;;;;;8.13;3.72;;;33.10;50.70;;;;;;5047841;28;20029;-76
2022/06/20 12:16:45;;;;;;;8.77;3.63;;;33.30;51.40;;;;;;5048382;28;20545;-79
2022/06/20 12:25:30;;;;;;;13.50;3.63;;;33.50;50.20;;;;;;5048948;28;20044;-79
2022/06/20 12:27:56;;;;;;;3.92;3.30;;;33.50;49.60;;;;;;5049042;28;20066;-78
2022/06/20 12:30:22;;;;;;;7.90;3.45;;;33.50;49.30;;;;;;5048268;28;20032;-78
2022/06/20 12:32:53;;;;;;;3.63;3.33;;;33.60;49.20;;;;;;5049354;28;20121;-79
2022/06/20 12:35:31;;;;;;;5.82;3.30;;;33.70;48.30;;;;;;5048679;28;20489;-78
2022/06/20 12:38:04;;;;;;;6.15;3.47;;;33.70;47.50;;;;;;5048972;28;20045;-77
2022/06/20 12:40:39;;;;;;;9.63;3.00;;;33.90;47.50;;;;;;5040841;28;20025;-77
2022/06/20 12:43:31;;;;;;;7.25;3.42;;;34.10;46.60;;;;;;5028982;28;20120;-78
2022/06/20 12:46:31;;;;;;;10.48;3.50;;;34.10;45.20;;;;;;5028811;28;20476;-77
2022/06/20 12:48:59;;;;;;;7.53;3.42;;;34.20;45.60;;;;;;5028769;28;20024;-78
2022/06/20 12:51:40;;;;;;;6.57;2.75;;;34.30;46.40;;;;;;5029346;28;20151;-77
2022/06/20 12:54:27;;;;;;;10.10;3.17;;;34.30;45.50;;;;;;5034110;28;20111;-77
2022/06/20 12:57:21;;;;;;;5.75;3.22;;;34.50;47.00;;;;;;5035298;28;20480;-76
2022/06/20 12:59:53;;;;;;;11.63;4.80;;;34.60;47.70;;;;;;5029365;28;20128;-78
2022/06/20 13:02:18;;;;;;;8.90;3.67;;;34.70;46.70;;;;;;5028682;28;20033;-76
2022/06/20 13:05:11;;;;;;;20.80;4.32;;;34.60;45.70;;;;;;5036707;28;20029;-76
2022/06/20 13:07:49;;;;;;;8.45;3.13;;;34.70;45.20;;;;;;5042943;28;20449;-78
2022/06/20 13:10:43;;;;;;;8.25;3.95;;;34.70;45.90;;;;;;5039504;28;20021;-80
2022/06/20 13:13:15;;;;;;;12.10;3.88;;;34.80;46.50;;;;;;5052552;28;20099;-78
2022/06/20 13:15:59;;;;;;;8.88;3.83;;;34.80;45.90;;;;;;5052476;28;20051;-78
2022/06/20 13:18:44;;;;;;;5.20;3.92;;;34.80;46.30;;;;;;5050972;28;20029;-79
2022/06/20 13:21:34;;;;;;;9.33;3.20;;;34.80;45.30;;;;;;5052334;28;20029;-77
2022/06/20 13:24:18;;;;;;;9.15;3.95;;;34.80;45.50;;;;;;5044323;28;20077;-77
2022/06/20 13:27:17;;;;;;;10.45;3.67;;;34.90;46.20;;;;;;5052044;28;20025;-77
2022/06/20 13:29:51;;;;;;;8.13;3.53;;;34.90;46.10;;;;;;5039286;28;20454;-76
2022/06/20 13:32:46;;;;;;;6.07;3.63;;;35.10;45.90;;;;;;5038738;28;20025;-76
2022/06/20 13:35:26;;;;;;;4.32;3.33;;;35.20;45.70;;;;;;5029885;28;20488;-76
2022/06/20 13:38:20;;;;;;;6.10;3.47;;;35.10;45.30;;;;;;5032158;28;20033;-77
2022/06/20 13:40:52;;;;;;;6.88;3.50;;;35.30;45.90;;;;;;5042291;28;20028;-76
2022/06/20 13:43:24;;;;;;;3.72;3.42;;;35.30;45.30;;;;;;5051862;28;20031;-77
2022/06/20 13:46:00;;;;;;;3.78;3.47;;;35.40;46.30;;;;;;5051967;28;20079;-80
2022/06/20 13:48:35;;;;;;;9.07;3.50;;;35.40;46.60;;;;;;5052036;28;20021;-78
2022/06/20 13:51:07;;;;;;;5.63;3.70;;;35.50;46.30;;;;;;5051837;28;20025;-77
2022/06/20 13:53:45;;;;;;;5.55;3.85;;;35.40;46.00;;;;;;5051936;28;20060;-78
2022/06/20 13:56:26;;;;;;;5.00;3.47;;;35.50;45.50;;;;;;5051549;28;20091;-77